sensor_id;sensor_type;location;lat;lon;timestamp;temperature;humidity
10155;DHT22;5118;48.570;7.916;2023-05-23T00:00:06;16.40;99.90
10155;DHT22;5118;48.570;7.916;2023-05-23T00:02:38;16.40;99.90
10155;DHT22;5118;48.570;7.916;2023-05-23T00:05:08;16.30;99.90
10155;DHT22;5118;48.570;7.916;2023-05-23T00:07:36;16.20;99.90
10155;DHT22;5118;48.570;7.916;2023-05-23T00:10:06;16.20;99.90
10155;DHT22;5118;48.570;7.916;2023-05-23T00:12:34;16.10;99.90
10155;DHT22;5118;48.570;7.916;2023-05-23T00:15:04;16.10;99.90
10155;DHT22;5118;48.570;7.916;2023-05-23T00:17:35;16.00;99.90
10155;DHT22;5118;48.570;7.916;2023-05-23T00:20:05;16.00;99.90
10155;DHT22;5118;48.570;7.916;2023-05-23T00:22:37;15.90;99.90
10155;DHT22;5118;48.570;7.916;2023-05-23T00:25:09;15.90;99.90
10155;DHT22;5118;48.570;7.916;2023-05-23T00:27:38;15.80;99.90
10155;DHT22;5118;48.570;7.916;2023-05-23T00:30:07;15.80;99.90
10155;DHT22;5118;48.570;7.916;2023-05-23T00:32:36;15.70;99.90
10155;DHT22;5118;48.570;7.916;2023-05-23T00:35:05;15.70;99.90
10155;DHT22;5118;48.570;7.916;2023-05-23T00:37:33;15.70;99.90
10155;DHT22;5118;48.570;7.916;2023-05-23T00:40:04;15.60;99.90
10155;DHT22;5118;48.570;7.916;2023-05-23T00:42:34;15.60;99.90
10155;DHT22;5118;48.570;7.916;2023-05-23T00:45:03;15.60;99.90
10155;DHT22;5118;48.570;7.916;2023-05-23T00:47:32;15.50;99.90
10155;DHT22;5118;48.570;7.916;2023-05-23T00:50:02;15.50;99.90
10155;DHT22;5118;48.570;7.916;2023-05-23T00:52:31;15.50;99.90
10155;DHT22;5118;48.570;7.916;2023-05-23T00:54:59;15.40;99.90
10155;DHT22;5118;48.570;7.916;2023-05-23T00:57:29;15.40;99.90
10155;DHT22;5118;48.570;7.916;2023-05-23T01:00:00;15.40;99.90
10155;DHT22;5118;48.570;7.916;2023-05-23T01:02:31;15.40;99.90
10155;DHT22;5118;48.570;7.916;2023-05-23T01:05:03;15.40;99.90
10155;DHT22;5118;48.570;7.916;2023-05-23T01:07:31;15.40;99.90
10155;DHT22;5118;48.570;7.916;2023-05-23T01:10:00;15.30;99.90
10155;DHT22;5118;48.570;7.916;2023-05-23T01:12:35;15.30;99.90
10155;DHT22;5118;48.570;7.916;2023-05-23T01:15:08;15.30;99.90
10155;DHT22;5118;48.570;7.916;2023-05-23T01:17:43;15.30;99.90
10155;DHT22;5118;48.570;7.916;2023-05-23T01:20:18;15.20;99.90
10155;DHT22;5118;48.570;7.916;2023-05-23T01:23:04;15.20;99.90
10155;DHT22;5118;48.570;7.916;2023-05-23T01:25:52;15.20;99.90
10155;DHT22;5118;48.570;7.916;2023-05-23T01:28:28;15.30;99.90
10155;DHT22;5118;48.570;7.916;2023-05-23T01:31:02;15.30;99.90
10155;DHT22;5118;48.570;7.916;2023-05-23T01:33:31;15.40;99.90
10155;DHT22;5118;48.570;7.916;2023-05-23T01:36:01;15.40;99.90
10155;DHT22;5118;48.570;7.916;2023-05-23T01:38:30;15.50;99.90
10155;DHT22;5118;48.570;7.916;2023-05-23T01:40:59;15.60;99.90
10155;DHT22;5118;48.570;7.916;2023-05-23T01:43:29;15.60;99.90
10155;DHT22;5118;48.570;7.916;2023-05-23T01:45:58;15.70;99.90
10155;DHT22;5118;48.570;7.916;2023-05-23T01:48:28;15.70;99.90
10155;DHT22;5118;48.570;7.916;2023-05-23T01:50:57;15.70;99.90
10155;DHT22;5118;48.570;7.916;2023-05-23T01:53:26;15.80;99.90
10155;DHT22;5118;48.570;7.916;2023-05-23T01:55:57;15.80;99.90
10155;DHT22;5118;48.570;7.916;2023-05-23T01:58:30;15.80;99.90
10155;DHT22;5118;48.570;7.916;2023-05-23T02:01:00;15.80;99.90
10155;DHT22;5118;48.570;7.916;2023-05-23T02:03:29;15.80;99.90
10155;DHT22;5118;48.570;7.916;2023-05-23T02:05:58;15.90;99.90
10155;DHT22;5118;48.570;7.916;2023-05-23T02:08:26;15.90;99.90
10155;DHT22;5118;48.570;7.916;2023-05-23T02:10:55;15.90;99.90
10155;DHT22;5118;48.570;7.916;2023-05-23T02:13:23;15.90;99.90
10155;DHT22;5118;48.570;7.916;2023-05-23T02:15:53;15.90;99.90
10155;DHT22;5118;48.570;7.916;2023-05-23T02:18:22;16.00;99.90
10155;DHT22;5118;48.570;7.916;2023-05-23T02:20:52;16.00;99.90
10155;DHT22;5118;48.570;7.916;2023-05-23T02:23:22;16.00;99.90
10155;DHT22;5118;48.570;7.916;2023-05-23T02:25:50;16.10;99.90
10155;DHT22;5118;48.570;7.916;2023-05-23T02:28:19;16.10;99.90
10155;DHT22;5118;48.570;7.916;2023-05-23T02:30:48;16.10;99.90
10155;DHT22;5118;48.570;7.916;2023-05-23T02:33:18;16.20;99.90
10155;DHT22;5118;48.570;7.916;2023-05-23T02:35:47;16.20;99.90
10155;DHT22;5118;48.570;7.916;2023-05-23T02:38:17;16.20;99.90
10155;DHT22;5118;48.570;7.916;2023-05-23T02:40:47;16.20;99.90
10155;DHT22;5118;48.570;7.916;2023-05-23T02:43:16;16.20;99.90
10155;DHT22;5118;48.570;7.916;2023-05-23T02:45:45;16.30;99.90
10155;DHT22;5118;48.570;7.916;2023-05-23T02:48:14;16.30;99.90
10155;DHT22;5118;48.570;7.916;2023-05-23T02:50:45;16.30;99.90
10155;DHT22;5118;48.570;7.916;2023-05-23T02:53:14;16.30;99.90
10155;DHT22;5118;48.570;7.916;2023-05-23T02:55:42;16.40;99.90
10155;DHT22;5118;48.570;7.916;2023-05-23T02:58:11;16.40;99.90
10155;DHT22;5118;48.570;7.916;2023-05-23T03:00:39;16.40;99.90
10155;DHT22;5118;48.570;7.916;2023-05-23T03:03:10;16.40;99.90
10155;DHT22;5118;48.570;7.916;2023-05-23T03:05:38;16.50;99.90
10155;DHT22;5118;48.570;7.916;2023-05-23T03:08:09;16.50;99.90
10155;DHT22;5118;48.570;7.916;2023-05-23T03:10:39;16.50;99.90
10155;DHT22;5118;48.570;7.916;2023-05-23T03:13:07;16.60;99.90
10155;DHT22;5118;48.570;7.916;2023-05-23T03:15:36;16.60;99.90
10155;DHT22;5118;48.570;7.916;2023-05-23T03:18:05;16.60;99.90
10155;DHT22;5118;48.570;7.916;2023-05-23T03:20:34;16.60;99.90
10155;DHT22;5118;48.570;7.916;2023-05-23T03:23:03;16.60;99.90
10155;DHT22;5118;48.570;7.916;2023-05-23T03:25:33;16.60;99.90
10155;DHT22;5118;48.570;7.916;2023-05-23T03:28:01;16.60;99.90
10155;DHT22;5118;48.570;7.916;2023-05-23T03:30:30;16.50;99.90
10155;DHT22;5118;48.570;7.916;2023-05-23T03:32:59;16.50;99.90
10155;DHT22;5118;48.570;7.916;2023-05-23T03:35:28;16.50;99.90
10155;DHT22;5118;48.570;7.916;2023-05-23T03:37:57;16.40;99.90
10155;DHT22;5118;48.570;7.916;2023-05-23T03:40:26;16.50;99.90
10155;DHT22;5118;48.570;7.916;2023-05-23T03:43:03;16.40;99.90
10155;DHT22;5118;48.570;7.916;2023-05-23T03:45:35;16.40;99.90
10155;DHT22;5118;48.570;7.916;2023-05-23T03:48:11;16.30;99.90
10155;DHT22;5118;48.570;7.916;2023-05-23T03:50:41;16.40;99.90
10155;DHT22;5118;48.570;7.916;2023-05-23T03:53:11;16.40;99.90
10155;DHT22;5118;48.570;7.916;2023-05-23T03:55:39;16.40;99.90
10155;DHT22;5118;48.570;7.916;2023-05-23T03:58:09;16.50;99.90
10155;DHT22;5118;48.570;7.916;2023-05-23T04:00:44;16.50;99.90
10155;DHT22;5118;48.570;7.916;2023-05-23T04:03:15;16.60;99.90
10155;DHT22;5118;48.570;7.916;2023-05-23T04:05:44;16.60;99.90
10155;DHT22;5118;48.570;7.916;2023-05-23T04:08:13;16.70;99.90
10155;DHT22;5118;48.570;7.916;2023-05-23T04:10:41;16.80;99.90
10155;DHT22;5118;48.570;7.916;2023-05-23T04:13:11;16.80;99.90
10155;DHT22;5118;48.570;7.916;2023-05-23T04:15:41;16.90;99.90
10155;DHT22;5118;48.570;7.916;2023-05-23T04:18:12;16.90;99.90
10155;DHT22;5118;48.570;7.916;2023-05-23T04:20:42;16.90;99.90
10155;DHT22;5118;48.570;7.916;2023-05-23T04:23:11;17.00;99.90
10155;DHT22;5118;48.570;7.916;2023-05-23T04:25:41;17.00;99.90
10155;DHT22;5118;48.570;7.916;2023-05-23T04:28:25;17.00;99.90
10155;DHT22;5118;48.570;7.916;2023-05-23T04:30:53;17.00;99.90
10155;DHT22;5118;48.570;7.916;2023-05-23T04:33:25;17.00;99.90
10155;DHT22;5118;48.570;7.916;2023-05-23T04:35:54;17.10;99.90
10155;DHT22;5118;48.570;7.916;2023-05-23T04:38:23;17.10;99.90
10155;DHT22;5118;48.570;7.916;2023-05-23T04:40:52;17.10;99.90
10155;DHT22;5118;48.570;7.916;2023-05-23T04:43:45;17.20;99.90
10155;DHT22;5118;48.570;7.916;2023-05-23T04:46:25;17.20;99.90
10155;DHT22;5118;48.570;7.916;2023-05-23T04:49:26;17.20;99.90
10155;DHT22;5118;48.570;7.916;2023-05-23T04:51:55;17.30;99.90
10155;DHT22;5118;48.570;7.916;2023-05-23T04:54:26;17.30;99.90
10155;DHT22;5118;48.570;7.916;2023-05-23T04:56:57;17.30;99.90
10155;DHT22;5118;48.570;7.916;2023-05-23T04:59:29;17.40;99.90
10155;DHT22;5118;48.570;7.916;2023-05-23T05:01:58;17.40;99.90
10155;DHT22;5118;48.570;7.916;2023-05-23T05:04:27;17.40;99.90
10155;DHT22;5118;48.570;7.916;2023-05-23T05:06:55;17.50;99.90
10155;DHT22;5118;48.570;7.916;2023-05-23T05:09:23;17.50;99.90
10155;DHT22;5118;48.570;7.916;2023-05-23T05:11:53;17.50;99.90
10155;DHT22;5118;48.570;7.916;2023-05-23T05:14:21;17.50;99.90
10155;DHT22;5118;48.570;7.916;2023-05-23T05:16:51;17.60;99.90
10155;DHT22;5118;48.570;7.916;2023-05-23T05:19:22;17.60;99.90
10155;DHT22;5118;48.570;7.916;2023-05-23T05:21:50;17.60;99.90
10155;DHT22;5118;48.570;7.916;2023-05-23T05:24:19;17.70;99.90
10155;DHT22;5118;48.570;7.916;2023-05-23T05:26:48;17.80;99.90
10155;DHT22;5118;48.570;7.916;2023-05-23T05:29:20;17.90;99.90
10155;DHT22;5118;48.570;7.916;2023-05-23T05:31:48;18.00;99.90
10155;DHT22;5118;48.570;7.916;2023-05-23T05:34:19;18.10;99.90
10155;DHT22;5118;48.570;7.916;2023-05-23T05:36:48;18.20;99.90
10155;DHT22;5118;48.570;7.916;2023-05-23T05:39:23;18.20;99.90
10155;DHT22;5118;48.570;7.916;2023-05-23T05:41:53;18.30;99.90
10155;DHT22;5118;48.570;7.916;2023-05-23T05:44:22;18.40;99.90
10155;DHT22;5118;48.570;7.916;2023-05-23T05:46:51;18.50;99.90
10155;DHT22;5118;48.570;7.916;2023-05-23T05:49:21;18.50;99.90
10155;DHT22;5118;48.570;7.916;2023-05-23T05:51:49;18.60;99.90
10155;DHT22;5118;48.570;7.916;2023-05-23T05:54:18;18.70;99.90
10155;DHT22;5118;48.570;7.916;2023-05-23T05:56:46;18.70;99.90
10155;DHT22;5118;48.570;7.916;2023-05-23T05:59:15;18.70;99.90
10155;DHT22;5118;48.570;7.916;2023-05-23T06:01:44;18.80;99.90
10155;DHT22;5118;48.570;7.916;2023-05-23T06:04:12;18.80;99.90
10155;DHT22;5118;48.570;7.916;2023-05-23T06:06:43;18.90;99.90
10155;DHT22;5118;48.570;7.916;2023-05-23T06:09:11;18.90;99.90
10155;DHT22;5118;48.570;7.916;2023-05-23T06:11:42;18.90;99.90
10155;DHT22;5118;48.570;7.916;2023-05-23T06:14:10;18.90;99.90
10155;DHT22;5118;48.570;7.916;2023-05-23T06:16:43;18.90;99.90
10155;DHT22;5118;48.570;7.916;2023-05-23T06:19:12;19.00;99.90
10155;DHT22;5118;48.570;7.916;2023-05-23T06:21:41;19.00;99.90
10155;DHT22;5118;48.570;7.916;2023-05-23T06:24:11;19.10;99.90
10155;DHT22;5118;48.570;7.916;2023-05-23T06:26:40;19.20;99.90
10155;DHT22;5118;48.570;7.916;2023-05-23T06:29:09;19.30;99.90
10155;DHT22;5118;48.570;7.916;2023-05-23T06:31:37;19.30;99.90
10155;DHT22;5118;48.570;7.916;2023-05-23T06:34:05;19.30;99.90
10155;DHT22;5118;48.570;7.916;2023-05-23T06:36:34;19.30;99.90
10155;DHT22;5118;48.570;7.916;2023-05-23T06:39:02;19.30;99.90
10155;DHT22;5118;48.570;7.916;2023-05-23T06:41:32;19.40;99.90
10155;DHT22;5118;48.570;7.916;2023-05-23T06:44:01;19.40;99.90
10155;DHT22;5118;48.570;7.916;2023-05-23T06:46:30;19.40;99.90
10155;DHT22;5118;48.570;7.916;2023-05-23T06:48:58;19.40;99.90
10155;DHT22;5118;48.570;7.916;2023-05-23T06:51:41;19.30;99.90
10155;DHT22;5118;48.570;7.916;2023-05-23T06:54:10;19.30;99.90
10155;DHT22;5118;48.570;7.916;2023-05-23T06:56:40;19.20;99.90
10155;DHT22;5118;48.570;7.916;2023-05-23T06:59:08;19.20;99.90
10155;DHT22;5118;48.570;7.916;2023-05-23T07:01:37;19.20;99.90
10155;DHT22;5118;48.570;7.916;2023-05-23T07:04:06;19.30;99.90
10155;DHT22;5118;48.570;7.916;2023-05-23T07:06:35;19.40;99.90
10155;DHT22;5118;48.570;7.916;2023-05-23T07:09:05;19.60;99.90
10155;DHT22;5118;48.570;7.916;2023-05-23T07:11:33;19.80;99.90
10155;DHT22;5118;48.570;7.916;2023-05-23T07:14:04;19.90;99.90
10155;DHT22;5118;48.570;7.916;2023-05-23T07:16:36;20.10;99.90
10155;DHT22;5118;48.570;7.916;2023-05-23T07:19:06;20.30;99.90
10155;DHT22;5118;48.570;7.916;2023-05-23T07:21:41;20.40;99.90
10155;DHT22;5118;48.570;7.916;2023-05-23T07:24:13;20.50;99.90
10155;DHT22;5118;48.570;7.916;2023-05-23T07:26:42;20.70;99.90
10155;DHT22;5118;48.570;7.916;2023-05-23T07:29:12;20.90;99.90
10155;DHT22;5118;48.570;7.916;2023-05-23T07:31:41;21.00;99.90
10155;DHT22;5118;48.570;7.916;2023-05-23T07:34:12;21.00;99.90
10155;DHT22;5118;48.570;7.916;2023-05-23T07:36:50;21.10;99.90
10155;DHT22;5118;48.570;7.916;2023-05-23T07:39:20;21.10;99.90
10155;DHT22;5118;48.570;7.916;2023-05-23T07:41:52;21.30;99.90
10155;DHT22;5118;48.570;7.916;2023-05-23T07:44:22;21.30;99.90
10155;DHT22;5118;48.570;7.916;2023-05-23T07:46:52;21.40;99.90
10155;DHT22;5118;48.570;7.916;2023-05-23T07:49:21;21.50;99.90
10155;DHT22;5118;48.570;7.916;2023-05-23T07:51:50;21.60;99.90
10155;DHT22;5118;48.570;7.916;2023-05-23T07:54:18;21.70;99.90
10155;DHT22;5118;48.570;7.916;2023-05-23T07:56:52;21.70;99.90
10155;DHT22;5118;48.570;7.916;2023-05-23T07:59:22;21.70;99.90
10155;DHT22;5118;48.570;7.916;2023-05-23T08:01:51;21.70;99.90
10155;DHT22;5118;48.570;7.916;2023-05-23T08:04:22;21.70;99.90
10155;DHT22;5118;48.570;7.916;2023-05-23T08:06:52;21.70;99.90
10155;DHT22;5118;48.570;7.916;2023-05-23T08:09:53;21.80;99.90
10155;DHT22;5118;48.570;7.916;2023-05-23T08:12:22;21.80;99.90
10155;DHT22;5118;48.570;7.916;2023-05-23T08:15:00;21.90;99.90
10155;DHT22;5118;48.570;7.916;2023-05-23T08:17:35;21.90;99.90
10155;DHT22;5118;48.570;7.916;2023-05-23T08:20:05;21.90;99.90
10155;DHT22;5118;48.570;7.916;2023-05-23T08:22:36;21.80;99.90
10155;DHT22;5118;48.570;7.916;2023-05-23T08:25:05;21.80;99.90
10155;DHT22;5118;48.570;7.916;2023-05-23T08:27:36;21.80;99.90
10155;DHT22;5118;48.570;7.916;2023-05-23T08:30:27;21.60;99.90
10155;DHT22;5118;48.570;7.916;2023-05-23T08:32:56;21.50;99.90
10155;DHT22;5118;48.570;7.916;2023-05-23T08:35:25;21.40;99.90
10155;DHT22;5118;48.570;7.916;2023-05-23T08:37:55;21.30;99.90
10155;DHT22;5118;48.570;7.916;2023-05-23T08:40:26;21.30;99.90
10155;DHT22;5118;48.570;7.916;2023-05-23T08:43:03;21.30;99.90
10155;DHT22;5118;48.570;7.916;2023-05-23T08:45:34;21.10;99.90
10155;DHT22;5118;48.570;7.916;2023-05-23T08:48:05;21.00;99.90
10155;DHT22;5118;48.570;7.916;2023-05-23T08:50:42;20.80;99.90
10155;DHT22;5118;48.570;7.916;2023-05-23T08:53:15;20.60;99.90
10155;DHT22;5118;48.570;7.916;2023-05-23T08:55:51;20.30;99.90
10155;DHT22;5118;48.570;7.916;2023-05-23T08:58:25;20.20;99.90
10155;DHT22;5118;48.570;7.916;2023-05-23T09:00:58;20.10;99.90
10155;DHT22;5118;48.570;7.916;2023-05-23T09:03:28;20.00;99.90
10155;DHT22;5118;48.570;7.916;2023-05-23T09:06:09;20.00;99.90
10155;DHT22;5118;48.570;7.916;2023-05-23T09:08:38;20.00;99.90
10155;DHT22;5118;48.570;7.916;2023-05-23T09:11:07;19.90;99.90
10155;DHT22;5118;48.570;7.916;2023-05-23T09:13:39;19.80;99.90
10155;DHT22;5118;48.570;7.916;2023-05-23T09:16:12;19.70;99.90
10155;DHT22;5118;48.570;7.916;2023-05-23T09:18:55;19.60;99.90
10155;DHT22;5118;48.570;7.916;2023-05-23T09:21:26;19.50;99.90
10155;DHT22;5118;48.570;7.916;2023-05-23T09:24:04;19.40;99.90
10155;DHT22;5118;48.570;7.916;2023-05-23T09:26:33;19.40;99.90
10155;DHT22;5118;48.570;7.916;2023-05-23T09:29:04;19.40;99.90
10155;DHT22;5118;48.570;7.916;2023-05-23T09:31:35;19.40;99.90
10155;DHT22;5118;48.570;7.916;2023-05-23T09:34:04;19.40;99.90
10155;DHT22;5118;48.570;7.916;2023-05-23T09:36:40;19.50;99.90
10155;DHT22;5118;48.570;7.916;2023-05-23T09:39:11;19.60;99.90
10155;DHT22;5118;48.570;7.916;2023-05-23T09:41:40;19.60;99.90
10155;DHT22;5118;48.570;7.916;2023-05-23T09:44:08;19.70;99.90
10155;DHT22;5118;48.570;7.916;2023-05-23T09:46:38;19.70;99.90
10155;DHT22;5118;48.570;7.916;2023-05-23T09:49:16;19.80;99.90
10155;DHT22;5118;48.570;7.916;2023-05-23T09:51:56;19.80;99.90
10155;DHT22;5118;48.570;7.916;2023-05-23T09:54:25;19.90;99.90
10155;DHT22;5118;48.570;7.916;2023-05-23T09:56:54;19.90;99.90
10155;DHT22;5118;48.570;7.916;2023-05-23T09:59:27;19.90;99.90
10155;DHT22;5118;48.570;7.916;2023-05-23T10:01:59;20.00;99.90
10155;DHT22;5118;48.570;7.916;2023-05-23T10:04:30;20.00;99.90
10155;DHT22;5118;48.570;7.916;2023-05-23T10:07:09;20.10;99.90
10155;DHT22;5118;48.570;7.916;2023-05-23T10:09:44;20.20;99.90
10155;DHT22;5118;48.570;7.916;2023-05-23T10:12:36;20.30;99.90
10155;DHT22;5118;48.570;7.916;2023-05-23T10:15:07;20.50;99.90
10155;DHT22;5118;48.570;7.916;2023-05-23T10:17:52;20.90;99.90
10155;DHT22;5118;48.570;7.916;2023-05-23T10:20:25;21.10;99.90
10155;DHT22;5118;48.570;7.916;2023-05-23T10:22:59;21.40;99.90
10155;DHT22;5118;48.570;7.916;2023-05-23T10:25:27;21.50;99.90
10155;DHT22;5118;48.570;7.916;2023-05-23T10:27:58;21.60;99.90
10155;DHT22;5118;48.570;7.916;2023-05-23T10:30:30;21.60;99.90
10155;DHT22;5118;48.570;7.916;2023-05-23T10:33:03;21.70;99.90
10155;DHT22;5118;48.570;7.916;2023-05-23T10:35:40;21.70;99.90
10155;DHT22;5118;48.570;7.916;2023-05-23T10:41:10;21.70;99.90
10155;DHT22;5118;48.570;7.916;2023-05-23T10:43:44;21.80;99.90
10155;DHT22;5118;48.570;7.916;2023-05-23T10:46:18;21.90;99.90
10155;DHT22;5118;48.570;7.916;2023-05-23T10:48:54;22.20;99.90
10155;DHT22;5118;48.570;7.916;2023-05-23T10:51:23;22.50;99.90
10155;DHT22;5118;48.570;7.916;2023-05-23T10:53:53;22.80;99.90
10155;DHT22;5118;48.570;7.916;2023-05-23T10:56:22;23.20;99.90
10155;DHT22;5118;48.570;7.916;2023-05-23T10:58:52;23.70;99.90
10155;DHT22;5118;48.570;7.916;2023-05-23T11:01:22;24.20;99.90
10155;DHT22;5118;48.570;7.916;2023-05-23T11:03:52;24.50;99.90
10155;DHT22;5118;48.570;7.916;2023-05-23T11:06:32;24.90;99.90
10155;DHT22;5118;48.570;7.916;2023-05-23T11:09:08;25.20;99.90
10155;DHT22;5118;48.570;7.916;2023-05-23T11:11:54;25.50;99.90
10155;DHT22;5118;48.570;7.916;2023-05-23T11:14:32;25.70;99.90
10155;DHT22;5118;48.570;7.916;2023-05-23T11:17:15;25.90;99.90
10155;DHT22;5118;48.570;7.916;2023-05-23T11:19:59;26.30;99.90
10155;DHT22;5118;48.570;7.916;2023-05-23T11:22:28;26.90;99.90
10155;DHT22;5118;48.570;7.916;2023-05-23T11:24:58;27.40;99.90
10155;DHT22;5118;48.570;7.916;2023-05-23T11:27:29;28.00;99.90
10155;DHT22;5118;48.570;7.916;2023-05-23T11:30:03;28.40;99.90
10155;DHT22;5118;48.570;7.916;2023-05-23T11:32:32;28.50;99.90
10155;DHT22;5118;48.570;7.916;2023-05-23T11:35:03;28.60;99.90
10155;DHT22;5118;48.570;7.916;2023-05-23T11:37:33;28.90;98.40
10155;DHT22;5118;48.570;7.916;2023-05-23T11:40:26;28.90;97.50
10155;DHT22;5118;48.570;7.916;2023-05-23T11:42:56;29.00;94.10
10155;DHT22;5118;48.570;7.916;2023-05-23T11:45:25;28.90;95.20
10155;DHT22;5118;48.570;7.916;2023-05-23T11:47:54;28.70;94.40
10155;DHT22;5118;48.570;7.916;2023-05-23T11:50:25;28.70;94.10
10155;DHT22;5118;48.570;7.916;2023-05-23T11:52:54;28.80;94.00
10155;DHT22;5118;48.570;7.916;2023-05-23T11:55:22;29.10;93.90
10155;DHT22;5118;48.570;7.916;2023-05-23T11:57:55;29.10;91.30
10155;DHT22;5118;48.570;7.916;2023-05-23T12:00:23;28.70;91.10
10155;DHT22;5118;48.570;7.916;2023-05-23T12:02:52;28.00;90.30
10155;DHT22;5118;48.570;7.916;2023-05-23T12:05:20;27.60;91.30
10155;DHT22;5118;48.570;7.916;2023-05-23T12:07:50;27.30;91.80
10155;DHT22;5118;48.570;7.916;2023-05-23T12:10:18;27.10;92.30
10155;DHT22;5118;48.570;7.916;2023-05-23T12:12:50;26.80;92.30
10155;DHT22;5118;48.570;7.916;2023-05-23T12:15:24;26.80;92.60
10155;DHT22;5118;48.570;7.916;2023-05-23T12:17:54;26.90;93.00
10155;DHT22;5118;48.570;7.916;2023-05-23T12:20:24;27.10;92.80
10155;DHT22;5118;48.570;7.916;2023-05-23T12:22:56;27.40;92.50
10155;DHT22;5118;48.570;7.916;2023-05-23T12:25:24;27.80;92.00
10155;DHT22;5118;48.570;7.916;2023-05-23T12:27:53;28.30;91.80
10155;DHT22;5118;48.570;7.916;2023-05-23T12:30:22;28.30;89.80
10155;DHT22;5118;48.570;7.916;2023-05-23T12:32:51;27.90;87.80
10155;DHT22;5118;48.570;7.916;2023-05-23T12:35:20;27.30;87.10
10155;DHT22;5118;48.570;7.916;2023-05-23T12:37:57;26.80;89.30
10155;DHT22;5118;48.570;7.916;2023-05-23T12:40:27;26.40;89.20
10155;DHT22;5118;48.570;7.916;2023-05-23T12:42:56;26.10;90.40
10155;DHT22;5118;48.570;7.916;2023-05-23T12:45:31;26.10;91.90
10155;DHT22;5118;48.570;7.916;2023-05-23T12:48:00;26.70;92.10
10155;DHT22;5118;48.570;7.916;2023-05-23T12:50:29;27.40;91.50
10155;DHT22;5118;48.570;7.916;2023-05-23T12:52:59;27.80;90.50
10155;DHT22;5118;48.570;7.916;2023-05-23T12:55:27;28.00;89.00
10155;DHT22;5118;48.570;7.916;2023-05-23T12:57:56;28.00;88.20
10155;DHT22;5118;48.570;7.916;2023-05-23T13:00:24;27.90;86.90
10155;DHT22;5118;48.570;7.916;2023-05-23T13:02:52;27.90;86.60
10155;DHT22;5118;48.570;7.916;2023-05-23T13:05:21;28.00;86.90
10155;DHT22;5118;48.570;7.916;2023-05-23T13:07:50;28.50;87.70
10155;DHT22;5118;48.570;7.916;2023-05-23T13:10:20;29.10;84.60
10155;DHT22;5118;48.570;7.916;2023-05-23T13:12:48;29.60;83.10
10155;DHT22;5118;48.570;7.916;2023-05-23T13:15:17;30.20;81.80
10155;DHT22;5118;48.570;7.916;2023-05-23T13:17:45;30.80;78.90
10155;DHT22;5118;48.570;7.916;2023-05-23T13:20:16;30.90;76.00
10155;DHT22;5118;48.570;7.916;2023-05-23T13:22:45;30.60;73.30
10155;DHT22;5118;48.570;7.916;2023-05-23T13:25:13;30.20;74.10
10155;DHT22;5118;48.570;7.916;2023-05-23T13:27:43;30.20;73.80
10155;DHT22;5118;48.570;7.916;2023-05-23T13:30:15;30.40;73.40
10155;DHT22;5118;48.570;7.916;2023-05-23T13:32:44;31.00;70.00
10155;DHT22;5118;48.570;7.916;2023-05-23T13:35:16;31.00;67.50
10155;DHT22;5118;48.570;7.916;2023-05-23T13:37:44;31.10;68.20
10155;DHT22;5118;48.570;7.916;2023-05-23T13:40:16;31.50;68.40
10155;DHT22;5118;48.570;7.916;2023-05-23T13:42:47;31.80;66.30
10155;DHT22;5118;48.570;7.916;2023-05-23T13:45:17;31.80;65.60
10155;DHT22;5118;48.570;7.916;2023-05-23T13:47:46;31.50;64.80
10155;DHT22;5118;48.570;7.916;2023-05-23T13:50:14;31.30;66.00
10155;DHT22;5118;48.570;7.916;2023-05-23T13:52:43;31.60;67.20
10155;DHT22;5118;48.570;7.916;2023-05-23T13:55:15;32.30;66.50
10155;DHT22;5118;48.570;7.916;2023-05-23T13:57:46;32.80;63.20
10155;DHT22;5118;48.570;7.916;2023-05-23T14:00:15;33.00;60.40
10155;DHT22;5118;48.570;7.916;2023-05-23T14:02:44;32.70;58.70
10155;DHT22;5118;48.570;7.916;2023-05-23T14:05:12;32.50;60.50
10155;DHT22;5118;48.570;7.916;2023-05-23T14:07:41;32.70;61.90
10155;DHT22;5118;48.570;7.916;2023-05-23T14:10:13;33.40;59.60
10155;DHT22;5118;48.570;7.916;2023-05-23T14:12:43;34.30;58.00
10155;DHT22;5118;48.570;7.916;2023-05-23T14:15:13;35.10;55.60
10155;DHT22;5118;48.570;7.916;2023-05-23T14:17:41;35.60;53.50
10155;DHT22;5118;48.570;7.916;2023-05-23T14:20:10;36.30;53.10
10155;DHT22;5118;48.570;7.916;2023-05-23T14:22:39;37.00;50.20
10155;DHT22;5118;48.570;7.916;2023-05-23T14:25:08;37.10;46.30
10155;DHT22;5118;48.570;7.916;2023-05-23T14:27:37;36.50;45.80
10155;DHT22;5118;48.570;7.916;2023-05-23T14:30:07;35.70;44.00
10155;DHT22;5118;48.570;7.916;2023-05-23T14:32:37;34.30;43.30
10155;DHT22;5118;48.570;7.916;2023-05-23T14:35:07;33.00;44.40
10155;DHT22;5118;48.570;7.916;2023-05-23T14:37:36;31.60;46.20
10155;DHT22;5118;48.570;7.916;2023-05-23T14:40:06;30.50;47.80
10155;DHT22;5118;48.570;7.916;2023-05-23T14:42:36;29.90;49.90
10155;DHT22;5118;48.570;7.916;2023-05-23T14:45:05;29.50;50.90
10155;DHT22;5118;48.570;7.916;2023-05-23T14:47:33;29.70;52.40
10155;DHT22;5118;48.570;7.916;2023-05-23T14:50:05;30.10;52.30
10155;DHT22;5118;48.570;7.916;2023-05-23T14:52:34;30.50;51.60
10155;DHT22;5118;48.570;7.916;2023-05-23T14:55:02;30.90;51.50
10155;DHT22;5118;48.570;7.916;2023-05-23T14:57:31;31.50;51.30
10155;DHT22;5118;48.570;7.916;2023-05-23T14:59:59;32.10;50.00
10155;DHT22;5118;48.570;7.916;2023-05-23T15:02:29;32.50;48.70
10155;DHT22;5118;48.570;7.916;2023-05-23T15:04:57;32.80;49.20
10155;DHT22;5118;48.570;7.916;2023-05-23T15:07:27;33.30;48.70
10155;DHT22;5118;48.570;7.916;2023-05-23T15:09:56;33.60;46.80
10155;DHT22;5118;48.570;7.916;2023-05-23T15:12:24;34.10;47.50
10155;DHT22;5118;48.570;7.916;2023-05-23T15:14:53;35.00;47.20
10155;DHT22;5118;48.570;7.916;2023-05-23T15:17:32;35.80;43.90
10155;DHT22;5118;48.570;7.916;2023-05-23T15:20:01;36.30;41.90
10155;DHT22;5118;48.570;7.916;2023-05-23T15:22:34;36.20;41.20
10155;DHT22;5118;48.570;7.916;2023-05-23T15:25:06;36.20;41.40
10155;DHT22;5118;48.570;7.916;2023-05-23T15:27:35;36.20;40.50
10155;DHT22;5118;48.570;7.916;2023-05-23T15:30:05;36.50;39.70
10155;DHT22;5118;48.570;7.916;2023-05-23T15:32:34;36.70;39.30
10155;DHT22;5118;48.570;7.916;2023-05-23T15:35:02;36.70;37.40
10155;DHT22;5118;48.570;7.916;2023-05-23T15:37:31;36.30;36.60
10155;DHT22;5118;48.570;7.916;2023-05-23T15:40:01;36.10;36.10
10155;DHT22;5118;48.570;7.916;2023-05-23T15:42:30;35.70;36.30
10155;DHT22;5118;48.570;7.916;2023-05-23T15:44:58;35.70;37.50
10155;DHT22;5118;48.570;7.916;2023-05-23T15:47:27;36.00;37.70
10155;DHT22;5118;48.570;7.916;2023-05-23T15:49:55;36.60;36.50
10155;DHT22;5118;48.570;7.916;2023-05-23T15:52:24;36.80;35.80
10155;DHT22;5118;48.570;7.916;2023-05-23T15:54:52;37.00;35.80
10155;DHT22;5118;48.570;7.916;2023-05-23T15:57:22;37.20;35.00
10155;DHT22;5118;48.570;7.916;2023-05-23T15:59:50;37.30;34.30
10155;DHT22;5118;48.570;7.916;2023-05-23T16:02:19;36.70;33.60
10155;DHT22;5118;48.570;7.916;2023-05-23T16:04:47;35.70;33.70
10155;DHT22;5118;48.570;7.916;2023-05-23T16:07:16;34.50;34.80
10155;DHT22;5118;48.570;7.916;2023-05-23T16:09:44;33.30;35.60